sensor_id;sensor_type;location;lat;lon;timestamp;P1;durP1;ratioP1;P2;durP2;ratioP2
9809;SDS011;4944;52.514;13.192;2023-02-28T00:01:32;4.30;;;3.90;;
9809;SDS011;4944;52.514;13.192;2023-02-28T00:03:59;4.60;;;3.53;;
9809;SDS011;4944;52.514;13.192;2023-02-28T00:06:26;5.27;;;3.57;;
9809;SDS011;4944;52.514;13.192;2023-02-28T00:08:55;4.37;;;3.27;;
9809;SDS011;4944;52.514;13.192;2023-02-28T00:11:22;3.47;;;3.13;;
9809;SDS011;4944;52.514;13.192;2023-02-28T00:13:49;4.70;;;3.10;;
9809;SDS011;4944;52.514;13.192;2023-02-28T00:16:17;2.93;;;2.70;;
9809;SDS011;4944;52.514;13.192;2023-02-28T00:18:45;4.97;;;3.73;;
9809;SDS011;4944;52.514;13.192;2023-02-28T00:21:13;3.40;;;3.10;;
9809;SDS011;4944;52.514;13.192;2023-02-28T00:23:41;5.30;;;3.80;;
9809;SDS011;4944;52.514;13.192;2023-02-28T00:26:10;3.80;;;3.50;;
9809;SDS011;4944;52.514;13.192;2023-02-28T00:28:37;3.73;;;3.40;;
9809;SDS011;4944;52.514;13.192;2023-02-28T00:31:04;3.67;;;3.27;;
9809;SDS011;4944;52.514;13.192;2023-02-28T00:33:31;3.87;;;3.43;;
9809;SDS011;4944;52.514;13.192;2023-02-28T00:36:01;4.10;;;3.27;;
9809;SDS011;4944;52.514;13.192;2023-02-28T00:38:30;4.50;;;3.40;;
9809;SDS011;4944;52.514;13.192;2023-02-28T00:40:57;3.83;;;3.40;;
9809;SDS011;4944;52.514;13.192;2023-02-28T00:43:30;3.00;;;2.67;;
9809;SDS011;4944;52.514;13.192;2023-02-28T00:45:58;4.23;;;2.93;;
9809;SDS011;4944;52.514;13.192;2023-02-28T00:48:25;3.10;;;2.83;;
9809;SDS011;4944;52.514;13.192;2023-02-28T00:50:52;3.40;;;3.17;;
9809;SDS011;4944;52.514;13.192;2023-02-28T00:53:19;4.60;;;3.10;;
9809;SDS011;4944;52.514;13.192;2023-02-28T00:55:47;3.47;;;2.77;;
9809;SDS011;4944;52.514;13.192;2023-02-28T00:58:14;4.57;;;3.33;;
9809;SDS011;4944;52.514;13.192;2023-02-28T01:00:42;3.43;;;2.97;;
9809;SDS011;4944;52.514;13.192;2023-02-28T01:03:14;4.63;;;2.90;;
9809;SDS011;4944;52.514;13.192;2023-02-28T01:05:41;3.63;;;2.77;;
9809;SDS011;4944;52.514;13.192;2023-02-28T01:08:08;3.77;;;2.80;;
9809;SDS011;4944;52.514;13.192;2023-02-28T01:10:35;3.20;;;2.90;;
9809;SDS011;4944;52.514;13.192;2023-02-28T01:13:03;4.03;;;2.93;;
9809;SDS011;4944;52.514;13.192;2023-02-28T01:15:30;2.80;;;2.60;;
9809;SDS011;4944;52.514;13.192;2023-02-28T01:17:59;4.37;;;3.00;;
9809;SDS011;4944;52.514;13.192;2023-02-28T01:20:26;2.90;;;2.60;;
9809;SDS011;4944;52.514;13.192;2023-02-28T01:22:53;2.90;;;2.70;;
9809;SDS011;4944;52.514;13.192;2023-02-28T01:25:19;4.07;;;2.63;;
9809;SDS011;4944;52.514;13.192;2023-02-28T01:27:46;3.67;;;2.80;;
9809;SDS011;4944;52.514;13.192;2023-02-28T01:30:13;2.80;;;2.60;;
9809;SDS011;4944;52.514;13.192;2023-02-28T01:32:40;3.30;;;3.00;;
9809;SDS011;4944;52.514;13.192;2023-02-28T01:35:09;3.63;;;3.20;;
9809;SDS011;4944;52.514;13.192;2023-02-28T01:37:36;3.37;;;3.07;;
9809;SDS011;4944;52.514;13.192;2023-02-28T01:40:04;4.43;;;3.00;;
9809;SDS011;4944;52.514;13.192;2023-02-28T01:42:31;5.00;;;2.90;;
9809;SDS011;4944;52.514;13.192;2023-02-28T01:45:04;2.77;;;2.57;;
9809;SDS011;4944;52.514;13.192;2023-02-28T01:47:44;3.07;;;2.87;;
9809;SDS011;4944;52.514;13.192;2023-02-28T01:50:14;4.27;;;3.17;;
9809;SDS011;4944;52.514;13.192;2023-02-28T01:52:44;4.37;;;2.77;;
9809;SDS011;4944;52.514;13.192;2023-02-28T01:55:13;2.93;;;2.60;;
9809;SDS011;4944;52.514;13.192;2023-02-28T01:57:43;3.27;;;2.70;;
9809;SDS011;4944;52.514;13.192;2023-02-28T02:00:13;3.00;;;2.70;;
9809;SDS011;4944;52.514;13.192;2023-02-28T02:02:42;2.67;;;2.47;;
9809;SDS011;4944;52.514;13.192;2023-02-28T02:05:13;3.70;;;2.90;;
9809;SDS011;4944;52.514;13.192;2023-02-28T02:07:45;3.83;;;3.10;;
9809;SDS011;4944;52.514;13.192;2023-02-28T02:10:15;3.87;;;2.60;;
9809;SDS011;4944;52.514;13.192;2023-02-28T02:12:49;2.80;;;2.60;;
9809;SDS011;4944;52.514;13.192;2023-02-28T02:15:26;3.57;;;3.10;;
9809;SDS011;4944;52.514;13.192;2023-02-28T02:18:01;4.93;;;3.43;;
9809;SDS011;4944;52.514;13.192;2023-02-28T02:23:47;3.50;;;2.97;;
9809;SDS011;4944;52.514;13.192;2023-02-28T02:32:49;4.43;;;3.13;;
9809;SDS011;4944;52.514;13.192;2023-02-28T02:35:31;3.60;;;3.03;;
9809;SDS011;4944;52.514;13.192;2023-02-28T02:38:07;4.83;;;3.10;;
9809;SDS011;4944;52.514;13.192;2023-02-28T02:40:43;4.27;;;3.00;;
9809;SDS011;4944;52.514;13.192;2023-02-28T02:43:14;3.63;;;3.10;;
9809;SDS011;4944;52.514;13.192;2023-02-28T02:45:45;4.83;;;3.10;;
9809;SDS011;4944;52.514;13.192;2023-02-28T02:48:17;4.33;;;2.93;;
9809;SDS011;4944;52.514;13.192;2023-02-28T02:50:48;3.20;;;2.97;;
9809;SDS011;4944;52.514;13.192;2023-02-28T02:53:20;3.60;;;3.27;;
9809;SDS011;4944;52.514;13.192;2023-02-28T02:55:50;4.20;;;3.10;;
9809;SDS011;4944;52.514;13.192;2023-02-28T02:58:20;3.30;;;3.00;;
9809;SDS011;4944;52.514;13.192;2023-02-28T03:00:51;4.10;;;3.07;;
9809;SDS011;4944;52.514;13.192;2023-02-28T03:03:20;4.10;;;3.30;;
9809;SDS011;4944;52.514;13.192;2023-02-28T03:05:55;2.77;;;2.57;;
9809;SDS011;4944;52.514;13.192;2023-02-28T03:08:22;4.50;;;3.43;;
9809;SDS011;4944;52.514;13.192;2023-02-28T03:10:50;4.50;;;3.00;;
9809;SDS011;4944;52.514;13.192;2023-02-28T03:16:23;3.33;;;3.03;;
9809;SDS011;4944;52.514;13.192;2023-02-28T03:19:02;5.80;;;3.37;;
9809;SDS011;4944;52.514;13.192;2023-02-28T03:21:55;5.47;;;3.30;;
9809;SDS011;4944;52.514;13.192;2023-02-28T03:24:31;3.37;;;2.93;;
9809;SDS011;4944;52.514;13.192;2023-02-28T03:27:06;5.63;;;3.23;;
9809;SDS011;4944;52.514;13.192;2023-02-28T03:29:37;3.27;;;2.87;;
9809;SDS011;4944;52.514;13.192;2023-02-28T03:32:11;3.53;;;2.90;;
9809;SDS011;4944;52.514;13.192;2023-02-28T03:34:47;4.60;;;3.50;;
9809;SDS011;4944;52.514;13.192;2023-02-28T03:37:21;4.07;;;3.17;;
9809;SDS011;4944;52.514;13.192;2023-02-28T03:39:51;3.40;;;3.10;;
9809;SDS011;4944;52.514;13.192;2023-02-28T03:42:23;3.73;;;3.30;;
9809;SDS011;4944;52.514;13.192;2023-02-28T03:44:54;4.73;;;2.97;;
9809;SDS011;4944;52.514;13.192;2023-02-28T03:47:27;4.03;;;3.53;;
9809;SDS011;4944;52.514;13.192;2023-02-28T03:49:59;5.13;;;2.93;;
9809;SDS011;4944;52.514;13.192;2023-02-28T03:52:32;4.53;;;3.60;;
9809;SDS011;4944;52.514;13.192;2023-02-28T03:55:05;5.60;;;3.50;;
9809;SDS011;4944;52.514;13.192;2023-02-28T03:57:37;3.10;;;2.83;;
9809;SDS011;4944;52.514;13.192;2023-02-28T04:00:09;3.53;;;3.23;;
9809;SDS011;4944;52.514;13.192;2023-02-28T04:02:39;3.70;;;3.23;;
9809;SDS011;4944;52.514;13.192;2023-02-28T04:05:06;3.50;;;3.20;;
9809;SDS011;4944;52.514;13.192;2023-02-28T04:07:35;4.10;;;3.57;;
9809;SDS011;4944;52.514;13.192;2023-02-28T04:10:02;3.43;;;3.10;;
9809;SDS011;4944;52.514;13.192;2023-02-28T04:12:30;3.63;;;3.33;;
9809;SDS011;4944;52.514;13.192;2023-02-28T04:14:57;3.83;;;3.23;;
9809;SDS011;4944;52.514;13.192;2023-02-28T04:17:23;3.97;;;3.27;;
9809;SDS011;4944;52.514;13.192;2023-02-28T04:19:50;4.13;;;3.27;;
9809;SDS011;4944;52.514;13.192;2023-02-28T04:22:19;4.43;;;3.10;;
9809;SDS011;4944;52.514;13.192;2023-02-28T04:24:47;4.33;;;3.23;;
9809;SDS011;4944;52.514;13.192;2023-02-28T04:27:14;3.87;;;3.40;;
9809;SDS011;4944;52.514;13.192;2023-02-28T04:29:41;4.13;;;3.40;;
9809;SDS011;4944;52.514;13.192;2023-02-28T04:32:09;5.47;;;3.63;;
9809;SDS011;4944;52.514;13.192;2023-02-28T04:34:37;4.07;;;3.50;;
9809;SDS011;4944;52.514;13.192;2023-02-28T04:37:04;3.83;;;3.50;;
9809;SDS011;4944;52.514;13.192;2023-02-28T04:39:34;3.87;;;3.50;;
9809;SDS011;4944;52.514;13.192;2023-02-28T04:42:02;4.33;;;3.57;;
9809;SDS011;4944;52.514;13.192;2023-02-28T04:44:29;4.30;;;3.90;;
9809;SDS011;4944;52.514;13.192;2023-02-28T04:46:56;4.30;;;3.90;;
9809;SDS011;4944;52.514;13.192;2023-02-28T04:49:23;4.60;;;4.20;;
9809;SDS011;4944;52.514;13.192;2023-02-28T04:51:50;5.63;;;4.30;;
9809;SDS011;4944;52.514;13.192;2023-02-28T04:54:17;7.23;;;4.43;;
9809;SDS011;4944;52.514;13.192;2023-02-28T04:56:44;4.23;;;3.87;;
9809;SDS011;4944;52.514;13.192;2023-02-28T04:59:14;3.70;;;3.40;;
9809;SDS011;4944;52.514;13.192;2023-02-28T05:01:45;4.60;;;4.00;;
9809;SDS011;4944;52.514;13.192;2023-02-28T05:04:12;4.13;;;3.73;;
9809;SDS011;4944;52.514;13.192;2023-02-28T05:06:39;4.47;;;3.67;;
9809;SDS011;4944;52.514;13.192;2023-02-28T05:09:06;5.13;;;3.50;;
9809;SDS011;4944;52.514;13.192;2023-02-28T05:11:33;4.47;;;3.47;;
9809;SDS011;4944;52.514;13.192;2023-02-28T05:14:01;5.83;;;4.10;;
9809;SDS011;4944;52.514;13.192;2023-02-28T05:16:30;6.13;;;4.17;;
9809;SDS011;4944;52.514;13.192;2023-02-28T05:18:57;4.47;;;3.80;;
9809;SDS011;4944;52.514;13.192;2023-02-28T05:21:26;4.47;;;4.07;;
9809;SDS011;4944;52.514;13.192;2023-02-28T05:23:55;5.87;;;4.10;;
9809;SDS011;4944;52.514;13.192;2023-02-28T05:26:22;5.07;;;3.93;;
9809;SDS011;4944;52.514;13.192;2023-02-28T05:28:50;4.63;;;3.90;;
9809;SDS011;4944;52.514;13.192;2023-02-28T05:31:16;4.40;;;4.00;;
9809;SDS011;4944;52.514;13.192;2023-02-28T05:33:45;5.77;;;4.00;;
9809;SDS011;4944;52.514;13.192;2023-02-28T05:36:12;5.07;;;4.17;;
9809;SDS011;4944;52.514;13.192;2023-02-28T05:38:39;4.63;;;3.80;;
9809;SDS011;4944;52.514;13.192;2023-02-28T05:41:06;4.57;;;4.17;;
9809;SDS011;4944;52.514;13.192;2023-02-28T05:43:34;5.77;;;4.20;;
9809;SDS011;4944;52.514;13.192;2023-02-28T05:46:02;5.73;;;4.30;;
9809;SDS011;4944;52.514;13.192;2023-02-28T05:48:30;4.80;;;4.30;;
9809;SDS011;4944;52.514;13.192;2023-02-28T05:50:59;5.20;;;4.30;;
9809;SDS011;4944;52.514;13.192;2023-02-28T05:53:26;5.33;;;4.57;;
9809;SDS011;4944;52.514;13.192;2023-02-28T05:55:53;6.10;;;4.87;;
9809;SDS011;4944;52.514;13.192;2023-02-28T05:58:20;5.13;;;4.47;;
9809;SDS011;4944;52.514;13.192;2023-02-28T06:00:47;9.13;;;4.73;;
9809;SDS011;4944;52.514;13.192;2023-02-28T06:03:14;7.00;;;4.67;;
9809;SDS011;4944;52.514;13.192;2023-02-28T06:05:41;5.13;;;4.60;;
9809;SDS011;4944;52.514;13.192;2023-02-28T06:08:09;8.13;;;4.87;;
9809;SDS011;4944;52.514;13.192;2023-02-28T06:10:36;9.23;;;4.80;;
9809;SDS011;4944;52.514;13.192;2023-02-28T06:13:03;6.30;;;4.87;;
9809;SDS011;4944;52.514;13.192;2023-02-28T06:15:31;8.73;;;5.50;;
9809;SDS011;4944;52.514;13.192;2023-02-28T06:17:58;9.87;;;6.00;;
9809;SDS011;4944;52.514;13.192;2023-02-28T06:20:26;6.53;;;5.60;;
9809;SDS011;4944;52.514;13.192;2023-02-28T06:22:54;9.47;;;5.77;;
9809;SDS011;4944;52.514;13.192;2023-02-28T06:25:25;10.10;;;6.37;;
9809;SDS011;4944;52.514;13.192;2023-02-28T06:27:52;5.67;;;5.10;;
9809;SDS011;4944;52.514;13.192;2023-02-28T06:30:18;6.87;;;4.80;;
9809;SDS011;4944;52.514;13.192;2023-02-28T06:32:48;5.40;;;4.73;;
9809;SDS011;4944;52.514;13.192;2023-02-28T06:35:15;7.67;;;5.00;;
9809;SDS011;4944;52.514;13.192;2023-02-28T06:37:42;8.50;;;4.90;;
9809;SDS011;4944;52.514;13.192;2023-02-28T06:40:10;7.70;;;5.30;;
9809;SDS011;4944;52.514;13.192;2023-02-28T06:42:39;7.50;;;5.30;;
9809;SDS011;4944;52.514;13.192;2023-02-28T06:45:06;5.37;;;4.43;;
9809;SDS011;4944;52.514;13.192;2023-02-28T06:47:35;5.37;;;4.70;;
9809;SDS011;4944;52.514;13.192;2023-02-28T06:50:02;7.27;;;4.77;;
9809;SDS011;4944;52.514;13.192;2023-02-28T06:52:30;7.23;;;5.20;;
9809;SDS011;4944;52.514;13.192;2023-02-28T06:54:57;6.10;;;4.77;;
9809;SDS011;4944;52.514;13.192;2023-02-28T06:57:26;5.70;;;4.80;;
9809;SDS011;4944;52.514;13.192;2023-02-28T06:59:57;7.07;;;5.20;;
9809;SDS011;4944;52.514;13.192;2023-02-28T07:02:24;5.63;;;5.13;;
9809;SDS011;4944;52.514;13.192;2023-02-28T07:04:51;5.83;;;5.03;;
9809;SDS011;4944;52.514;13.192;2023-02-28T07:07:18;7.07;;;5.23;;
9809;SDS011;4944;52.514;13.192;2023-02-28T07:09:45;6.07;;;5.23;;
9809;SDS011;4944;52.514;13.192;2023-02-28T07:12:12;6.90;;;5.77;;
9809;SDS011;4944;52.514;13.192;2023-02-28T07:14:39;6.70;;;5.20;;
9809;SDS011;4944;52.514;13.192;2023-02-28T07:17:08;6.37;;;5.00;;
9809;SDS011;4944;52.514;13.192;2023-02-28T07:19:36;7.63;;;6.17;;
9809;SDS011;4944;52.514;13.192;2023-02-28T07:22:04;7.73;;;5.60;;
9809;SDS011;4944;52.514;13.192;2023-02-28T07:24:31;7.23;;;6.13;;
9809;SDS011;4944;52.514;13.192;2023-02-28T07:26:58;7.10;;;5.90;;
9809;SDS011;4944;52.514;13.192;2023-02-28T07:29:26;6.50;;;5.87;;
9809;SDS011;4944;52.514;13.192;2023-02-28T07:31:53;7.63;;;5.73;;
9809;SDS011;4944;52.514;13.192;2023-02-28T07:34:21;6.80;;;5.50;;
9809;SDS011;4944;52.514;13.192;2023-02-28T07:36:48;10.50;;;5.67;;
9809;SDS011;4944;52.514;13.192;2023-02-28T07:39:18;5.90;;;4.80;;
9809;SDS011;4944;52.514;13.192;2023-02-28T07:41:45;8.70;;;5.50;;
9809;SDS011;4944;52.514;13.192;2023-02-28T07:44:12;6.87;;;4.77;;
9809;SDS011;4944;52.514;13.192;2023-02-28T07:46:39;7.10;;;5.43;;
9809;SDS011;4944;52.514;13.192;2023-02-28T07:49:06;8.00;;;5.40;;
9809;SDS011;4944;52.514;13.192;2023-02-28T07:51:34;8.40;;;5.63;;
9809;SDS011;4944;52.514;13.192;2023-02-28T07:54:01;7.37;;;6.13;;
9809;SDS011;4944;52.514;13.192;2023-02-28T07:56:28;7.97;;;5.47;;
9809;SDS011;4944;52.514;13.192;2023-02-28T07:58:55;10.37;;;6.27;;
9809;SDS011;4944;52.514;13.192;2023-02-28T08:01:21;7.50;;;6.03;;
9809;SDS011;4944;52.514;13.192;2023-02-28T08:03:48;7.77;;;5.60;;
9809;SDS011;4944;52.514;13.192;2023-02-28T08:06:16;6.57;;;5.33;;
9809;SDS011;4944;52.514;13.192;2023-02-28T08:08:47;8.03;;;5.83;;
9809;SDS011;4944;52.514;13.192;2023-02-28T08:11:14;5.70;;;5.17;;
9809;SDS011;4944;52.514;13.192;2023-02-28T08:13:42;6.90;;;5.30;;
9809;SDS011;4944;52.514;13.192;2023-02-28T08:16:09;12.00;;;5.30;;
9809;SDS011;4944;52.514;13.192;2023-02-28T08:18:36;8.37;;;5.23;;
9809;SDS011;4944;52.514;13.192;2023-02-28T08:21:06;6.80;;;5.17;;
9809;SDS011;4944;52.514;13.192;2023-02-28T08:23:34;5.50;;;5.00;;
9809;SDS011;4944;52.514;13.192;2023-02-28T08:26:02;6.00;;;4.50;;
9809;SDS011;4944;52.514;13.192;2023-02-28T08:28:29;6.43;;;4.27;;
9809;SDS011;4944;52.514;13.192;2023-02-28T08:30:57;4.43;;;4.03;;
9809;SDS011;4944;52.514;13.192;2023-02-28T08:33:24;4.37;;;3.47;;
9809;SDS011;4944;52.514;13.192;2023-02-28T08:35:54;4.73;;;3.47;;
9809;SDS011;4944;52.514;13.192;2023-02-28T08:38:22;3.80;;;2.90;;
9809;SDS011;4944;52.514;13.192;2023-02-28T08:40:49;2.87;;;2.63;;
9809;SDS011;4944;52.514;13.192;2023-02-28T08:43:24;3.13;;;2.83;;
9809;SDS011;4944;52.514;13.192;2023-02-28T08:45:51;2.87;;;2.57;;
9809;SDS011;4944;52.514;13.192;2023-02-28T08:48:18;3.17;;;2.50;;
9809;SDS011;4944;52.514;13.192;2023-02-28T08:50:45;2.93;;;2.00;;
9809;SDS011;4944;52.514;13.192;2023-02-28T08:53:21;1.70;;;1.60;;
9809;SDS011;4944;52.514;13.192;2023-02-28T08:55:55;2.60;;;1.70;;
9809;SDS011;4944;52.514;13.192;2023-02-28T08:58:24;1.80;;;1.70;;
9809;SDS011;4944;52.514;13.192;2023-02-28T09:00:51;2.80;;;1.90;;
9809;SDS011;4944;52.514;13.192;2023-02-28T09:03:18;2.13;;;1.93;;
9809;SDS011;4944;52.514;13.192;2023-02-28T09:05:51;1.60;;;1.50;;
9809;SDS011;4944;52.514;13.192;2023-02-28T09:08:19;2.37;;;1.60;;
9809;SDS011;4944;52.514;13.192;2023-02-28T09:10:46;1.73;;;1.63;;
9809;SDS011;4944;52.514;13.192;2023-02-28T09:13:13;1.70;;;1.60;;
9809;SDS011;4944;52.514;13.192;2023-02-28T09:15:41;1.17;;;1.13;;
9809;SDS011;4944;52.514;13.192;2023-02-28T09:18:08;1.77;;;1.50;;
9809;SDS011;4944;52.514;13.192;2023-02-28T09:20:37;1.30;;;1.20;;
9809;SDS011;4944;52.514;13.192;2023-02-28T09:23:04;2.33;;;1.67;;
9809;SDS011;4944;52.514;13.192;2023-02-28T09:25:31;1.87;;;1.50;;
9809;SDS011;4944;52.514;13.192;2023-02-28T09:27:58;1.50;;;1.40;;
9809;SDS011;4944;52.514;13.192;2023-02-28T09:30:25;1.50;;;1.40;;
9809;SDS011;4944;52.514;13.192;2023-02-28T09:32:54;1.93;;;1.70;;
9809;SDS011;4944;52.514;13.192;2023-02-28T09:35:21;1.53;;;1.40;;
9809;SDS011;4944;52.514;13.192;2023-02-28T09:37:49;2.13;;;1.67;;
9809;SDS011;4944;52.514;13.192;2023-02-28T09:40:18;1.57;;;1.47;;
9809;SDS011;4944;52.514;13.192;2023-02-28T09:42:47;1.80;;;1.63;;
9809;SDS011;4944;52.514;13.192;2023-02-28T09:45:18;1.63;;;1.53;;
9809;SDS011;4944;52.514;13.192;2023-02-28T09:47:49;1.83;;;1.50;;
9809;SDS011;4944;52.514;13.192;2023-02-28T09:50:23;1.53;;;1.43;;
9809;SDS011;4944;52.514;13.192;2023-02-28T09:52:58;1.33;;;1.33;;
9809;SDS011;4944;52.514;13.192;2023-02-28T09:55:28;1.40;;;1.30;;
9809;SDS011;4944;52.514;13.192;2023-02-28T09:57:59;1.73;;;1.50;;
9809;SDS011;4944;52.514;13.192;2023-02-28T10:00:29;1.50;;;1.40;;
9809;SDS011;4944;52.514;13.192;2023-02-28T10:05:56;1.60;;;1.50;;
9809;SDS011;4944;52.514;13.192;2023-02-28T10:08:30;3.97;;;1.57;;
9809;SDS011;4944;52.514;13.192;2023-02-28T10:11:09;1.70;;;1.60;;
9809;SDS011;4944;52.514;13.192;2023-02-28T10:13:42;1.50;;;1.40;;
9809;SDS011;4944;52.514;13.192;2023-02-28T10:16:19;1.60;;;1.50;;
9809;SDS011;4944;52.514;13.192;2023-02-28T10:18:52;2.97;;;1.97;;
9809;SDS011;4944;52.514;13.192;2023-02-28T10:21:26;2.80;;;1.70;;
9809;SDS011;4944;52.514;13.192;2023-02-28T10:23:58;3.23;;;1.80;;
9809;SDS011;4944;52.514;13.192;2023-02-28T10:26:30;1.50;;;1.40;;
9809;SDS011;4944;52.514;13.192;2023-02-28T10:28:58;3.53;;;1.90;;
9809;SDS011;4944;52.514;13.192;2023-02-28T10:31:25;1.80;;;1.60;;
9809;SDS011;4944;52.514;13.192;2023-02-28T10:33:52;1.83;;;1.70;;
9809;SDS011;4944;52.514;13.192;2023-02-28T10:36:20;2.50;;;1.43;;
9809;SDS011;4944;52.514;13.192;2023-02-28T10:38:49;3.37;;;1.57;;
9809;SDS011;4944;52.514;13.192;2023-02-28T10:41:18;2.60;;;1.50;;
9809;SDS011;4944;52.514;13.192;2023-02-28T10:43:55;3.27;;;1.90;;
9809;SDS011;4944;52.514;13.192;2023-02-28T10:46:40;2.90;;;1.80;;
9809;SDS011;4944;52.514;13.192;2023-02-28T10:49:12;1.53;;;1.43;;
9809;SDS011;4944;52.514;13.192;2023-02-28T10:51:41;1.70;;;1.60;;
9809;SDS011;4944;52.514;13.192;2023-02-28T10:54:16;2.43;;;1.77;;
9809;SDS011;4944;52.514;13.192;2023-02-28T10:56:45;2.10;;;1.60;;
9809;SDS011;4944;52.514;13.192;2023-02-28T10:59:26;1.60;;;1.50;;
9809;SDS011;4944;52.514;13.192;2023-02-28T11:01:54;4.23;;;2.10;;
9809;SDS011;4944;52.514;13.192;2023-02-28T11:04:31;5.17;;;1.77;;
9809;SDS011;4944;52.514;13.192;2023-02-28T11:07:03;2.30;;;1.60;;
9809;SDS011;4944;52.514;13.192;2023-02-28T11:09:34;1.93;;;1.33;;
9809;SDS011;4944;52.514;13.192;2023-02-28T11:12:04;3.23;;;1.90;;
9809;SDS011;4944;52.514;13.192;2023-02-28T11:14:32;1.90;;;1.80;;
9809;SDS011;4944;52.514;13.192;2023-02-28T11:17:11;3.77;;;2.07;;
9809;SDS011;4944;52.514;13.192;2023-02-28T11:19:45;3.67;;;2.10;;
9809;SDS011;4944;52.514;13.192;2023-02-28T11:22:16;1.80;;;1.70;;
9809;SDS011;4944;52.514;13.192;2023-02-28T11:24:47;2.53;;;1.90;;
9809;SDS011;4944;52.514;13.192;2023-02-28T11:27:40;1.97;;;1.77;;
9809;SDS011;4944;52.514;13.192;2023-02-28T11:32:59;1.97;;;1.83;;
9809;SDS011;4944;52.514;13.192;2023-02-28T11:35:28;4.97;;;1.73;;
9809;SDS011;4944;52.514;13.192;2023-02-28T11:37:59;3.10;;;2.10;;
9809;SDS011;4944;52.514;13.192;2023-02-28T11:40:42;2.23;;;2.10;;
9809;SDS011;4944;52.514;13.192;2023-02-28T11:43:17;3.23;;;1.43;;
9809;SDS011;4944;52.514;13.192;2023-02-28T11:46:03;1.90;;;1.80;;
9809;SDS011;4944;52.514;13.192;2023-02-28T11:48:38;1.73;;;1.60;;
9809;SDS011;4944;52.514;13.192;2023-02-28T11:51:15;2.10;;;1.80;;
9809;SDS011;4944;52.514;13.192;2023-02-28T11:53:50;2.13;;;1.80;;
9809;SDS011;4944;52.514;13.192;2023-02-28T11:56:27;2.33;;;1.70;;
9809;SDS011;4944;52.514;13.192;2023-02-28T11:59:02;2.50;;;1.63;;
9809;SDS011;4944;52.514;13.192;2023-02-28T12:01:38;2.40;;;1.87;;
9809;SDS011;4944;52.514;13.192;2023-02-28T12:04:21;8.23;;;2.20;;
9809;SDS011;4944;52.514;13.192;2023-02-28T12:06:57;2.20;;;1.93;;
9809;SDS011;4944;52.514;13.192;2023-02-28T12:09:36;2.17;;;1.97;;
9809;SDS011;4944;52.514;13.192;2023-02-28T12:12:15;2.47;;;1.83;;
9809;SDS011;4944;52.514;13.192;2023-02-28T12:17:54;2.70;;;2.20;;
9809;SDS011;4944;52.514;13.192;2023-02-28T12:20:36;3.03;;;2.20;;
9809;SDS011;4944;52.514;13.192;2023-02-28T12:23:26;2.10;;;1.80;;
9809;SDS011;4944;52.514;13.192;2023-02-28T12:26:14;2.37;;;2.10;;
9809;SDS011;4944;52.514;13.192;2023-02-28T12:28:51;3.53;;;1.77;;
9809;SDS011;4944;52.514;13.192;2023-02-28T12:31:24;1.70;;;1.60;;
9809;SDS011;4944;52.514;13.192;2023-02-28T12:33:56;1.73;;;1.47;;
9809;SDS011;4944;52.514;13.192;2023-02-28T12:36:29;1.90;;;1.80;;
9809;SDS011;4944;52.514;13.192;2023-02-28T12:38:56;1.97;;;1.87;;
9809;SDS011;4944;52.514;13.192;2023-02-28T12:41:29;2.13;;;1.83;;
9809;SDS011;4944;52.514;13.192;2023-02-28T12:44:04;2.20;;;1.90;;
9809;SDS011;4944;52.514;13.192;2023-02-28T12:46:35;1.67;;;1.57;;
9809;SDS011;4944;52.514;13.192;2023-02-28T12:49:05;4.33;;;1.87;;
9809;SDS011;4944;52.514;13.192;2023-02-28T12:51:35;3.83;;;2.37;;
9809;SDS011;4944;52.514;13.192;2023-02-28T12:54:05;2.03;;;1.93;;
9809;SDS011;4944;52.514;13.192;2023-02-28T12:56:43;2.33;;;1.90;;
9809;SDS011;4944;52.514;13.192;2023-02-28T12:59:22;2.83;;;2.00;;
9809;SDS011;4944;52.514;13.192;2023-02-28T13:05:12;2.50;;;2.20;;
9809;SDS011;4944;52.514;13.192;2023-02-28T13:08:08;2.30;;;2.10;;
9809;SDS011;4944;52.514;13.192;2023-02-28T13:10:50;2.20;;;2.10;;
9809;SDS011;4944;52.514;13.192;2023-02-28T13:13:20;3.50;;;2.23;;
9809;SDS011;4944;52.514;13.192;2023-02-28T13:16:04;2.40;;;2.10;;
9809;SDS011;4944;52.514;13.192;2023-02-28T13:18:34;2.93;;;2.23;;
9809;SDS011;4944;52.514;13.192;2023-02-28T13:21:05;2.87;;;1.80;;
9809;SDS011;4944;52.514;13.192;2023-02-28T13:23:38;2.97;;;2.30;;
9809;SDS011;4944;52.514;13.192;2023-02-28T13:26:07;3.20;;;2.90;;
9809;SDS011;4944;52.514;13.192;2023-02-28T13:38:17;2.73;;;2.50;;
9809;SDS011;4944;52.514;13.192;2023-02-28T13:40:49;2.30;;;2.10;;
9809;SDS011;4944;52.514;13.192;2023-02-28T13:43:16;3.23;;;2.43;;
9809;SDS011;4944;52.514;13.192;2023-02-28T13:46:04;2.70;;;2.50;;
9809;SDS011;4944;52.514;13.192;2023-02-28T13:48:35;3.03;;;2.73;;
9809;SDS011;4944;52.514;13.192;2023-02-28T13:54:05;2.53;;;2.33;;
9809;SDS011;4944;52.514;13.192;2023-02-28T13:56:45;2.67;;;2.47;;
9809;SDS011;4944;52.514;13.192;2023-02-28T13:59:20;2.80;;;2.50;;
9809;SDS011;4944;52.514;13.192;2023-02-28T14:02:01;2.73;;;2.53;;
9809;SDS011;4944;52.514;13.192;2023-02-28T14:04:49;3.10;;;2.43;;
9809;SDS011;4944;52.514;13.192;2023-02-28T14:07:26;3.07;;;2.80;;
9809;SDS011;4944;52.514;13.192;2023-02-28T14:09:57;3.00;;;2.60;;
9809;SDS011;4944;52.514;13.192;2023-02-28T14:18:26;4.30;;;2.80;;
9809;SDS011;4944;52.514;13.192;2023-02-28T14:20:59;3.00;;;2.50;;
9809;SDS011;4944;52.514;13.192;2023-02-28T14:26:19;3.70;;;2.40;;
9809;SDS011;4944;52.514;13.192;2023-02-28T14:29:02;2.90;;;2.70;;
9809;SDS011;4944;52.514;13.192;2023-02-28T14:31:43;2.90;;;2.70;;
9809;SDS011;4944;52.514;13.192;2023-02-28T14:34:20;4.13;;;2.40;;
9809;SDS011;4944;52.514;13.192;2023-02-28T14:37:00;3.73;;;2.43;;
9809;SDS011;4944;52.514;13.192;2023-02-28T14:39:29;3.43;;;2.63;;
9809;SDS011;4944;52.514;13.192;2023-02-28T14:41:57;2.47;;;2.37;;
9809;SDS011;4944;52.514;13.192;2023-02-28T14:44:28;3.80;;;2.90;;
9809;SDS011;4944;52.514;13.192;2023-02-28T14:46:56;4.67;;;3.13;;
9809;SDS011;4944;52.514;13.192;2023-02-28T14:49:29;3.33;;;2.67;;
9809;SDS011;4944;52.514;13.192;2023-02-28T14:52:03;3.10;;;2.30;;
9809;SDS011;4944;52.514;13.192;2023-02-28T14:54:34;2.60;;;2.40;;
9809;SDS011;4944;52.514;13.192;2023-02-28T14:57:02;3.53;;;2.73;;
9809;SDS011;4944;52.514;13.192;2023-02-28T14:59:30;2.83;;;2.63;;
9809;SDS011;4944;52.514;13.192;2023-02-28T15:02:18;2.57;;;2.37;;
9809;SDS011;4944;52.514;13.192;2023-02-28T15:04:56;3.93;;;2.90;;
9809;SDS011;4944;52.514;13.192;2023-02-28T15:07:26;2.87;;;2.67;;
9809;SDS011;4944;52.514;13.192;2023-02-28T15:10:10;3.13;;;2.83;;
9809;SDS011;4944;52.514;13.192;2023-02-28T15:12:47;2.57;;;2.37;;
9809;SDS011;4944;52.514;13.192;2023-02-28T15:15:18;2.83;;;2.63;;
9809;SDS011;4944;52.514;13.192;2023-02-28T15:17:48;4.63;;;2.20;;
9809;SDS011;4944;52.514;13.192;2023-02-28T15:20:19;4.33;;;2.30;;
9809;SDS011;4944;52.514;13.192;2023-02-28T15:22:49;3.60;;;2.43;;
9809;SDS011;4944;52.514;13.192;2023-02-28T15:25:18;3.30;;;3.00;;
9809;SDS011;4944;52.514;13.192;2023-02-28T15:27:48;3.27;;;2.63;;
9809;SDS011;4944;52.514;13.192;2023-02-28T15:30:17;2.77;;;2.47;;
9809;SDS011;4944;52.514;13.192;2023-02-28T15:33:01;4.27;;;2.77;;
9809;SDS011;4944;52.514;13.192;2023-02-28T15:35:30;2.70;;;2.50;;
9809;SDS011;4944;52.514;13.192;2023-02-28T15:38:01;2.80;;;2.60;;
9809;SDS011;4944;52.514;13.192;2023-02-28T15:40:31;3.30;;;2.30;;
9809;SDS011;4944;52.514;13.192;2023-02-28T15:43:05;2.60;;;2.30;;
9809;SDS011;4944;52.514;13.192;2023-02-28T15:45:37;3.37;;;2.17;;
9809;SDS011;4944;52.514;13.192;2023-02-28T15:48:13;4.90;;;2.60;;
9809;SDS011;4944;52.514;13.192;2023-02-28T15:50:47;4.13;;;2.33;;
9809;SDS011;4944;52.514;13.192;2023-02-28T15:53:18;2.70;;;2.43;;
9809;SDS011;4944;52.514;13.192;2023-02-28T15:55:52;3.37;;;2.20;;
9809;SDS011;4944;52.514;13.192;2023-02-28T15:58:21;3.83;;;2.20;;
9809;SDS011;4944;52.514;13.192;2023-02-28T16:00:59;2.20;;;2.00;;
9809;SDS011;4944;52.514;13.192;2023-02-28T16:03:32;2.50;;;2.30;;
9809;SDS011;4944;52.514;13.192;2023-02-28T16:06:09;2.80;;;2.40;;
9809;SDS011;4944;52.514;13.192;2023-02-28T16:08:58;2.67;;;2.37;;